Terminal Aerodrome Forecast
Issued by NWS

Home | Current Version | Previous Version | Text Only | Print | Product List | Glossary On
Versions: 1 2 3 4 5 6 7 8 9 10 11 12 13 14 15 16 17
893
FTUS43 KJKL 241738
TAFSJS
TAF
KSJS 241738Z 2418/2518 20009G17KT P6SM FEW040 SCT250
     FM250400 19008KT P6SM VCTS FEW040CB SCT060 BKN100
     FM250700 20009KT 5SM -SHRA VCTS BKN035CB OVC060
     FM251100 24009KT 3SM SHRA OVC025
     FM251200 26010KT 3SM -SHRA OVC020
     FM251400 27010G18KT P6SM BKN025=

USA.gov is the U.S. government's official web portal to all federal, state and local government web resources and services.